createdAt,value
2022-12-26T00:00:28.046Z,8.62
2022-12-26T00:01:02.407Z,8.61
2022-12-26T00:01:36.680Z,8.59
2022-12-26T00:02:08.536Z,8.58
2022-12-26T00:02:40.229Z,8.56
2022-12-26T00:03:11.961Z,8.56
2022-12-26T00:03:43.743Z,8.54
2022-12-26T00:04:49.646Z,8.54
2022-12-26T00:05:08.619Z,8.51
2022-12-26T00:05:40.195Z,8.51
2022-12-26T00:06:18.720Z,8.52
2022-12-26T00:06:50.343Z,8.52
2022-12-26T00:07:21.949Z,8.49
2022-12-26T00:07:53.533Z,8.49
2022-12-26T00:08:25.127Z,8.51
2022-12-26T00:08:57.614Z,8.45
2022-12-26T00:09:29.291Z,8.51
2022-12-26T00:10:00.990Z,8.49
2022-12-26T00:10:32.558Z,8.49
2022-12-26T00:11:04.156Z,8.55
2022-12-26T00:11:36.479Z,8.61
2022-12-26T00:12:08.056Z,8.62
2022-12-26T00:12:39.593Z,8.58
2022-12-26T00:13:39.620Z,8.55
2022-12-26T00:14:09.931Z,8.51
2022-12-26T00:14:41.529Z,8.49
2022-12-26T00:15:13.110Z,8.46
2022-12-26T00:15:44.791Z,8.44
2022-12-26T00:16:18.279Z,8.45
2022-12-26T00:16:50.027Z,8.46
2022-12-26T00:17:21.741Z,8.46
2022-12-26T00:17:53.323Z,8.45
2022-12-26T00:18:24.861Z,8.48
2022-12-26T00:18:56.776Z,8.45
2022-12-26T00:19:28.485Z,8.49
2022-12-26T00:20:00.169Z,8.52
2022-12-26T00:20:31.829Z,8.51
2022-12-26T00:21:03.540Z,8.48
2022-12-26T00:21:35.536Z,8.46
2022-12-26T00:22:07.127Z,8.45
2022-12-26T00:22:38.662Z,8.44
2022-12-26T00:23:10.284Z,8.46
2022-12-26T00:23:42.442Z,8.44
2022-12-26T00:24:14.044Z,8.44
2022-12-26T00:24:45.664Z,8.45
2022-12-26T00:25:17.255Z,8.42
2022-12-26T00:25:48.850Z,8.42
2022-12-26T00:26:22.611Z,8.42
2022-12-26T00:26:54.329Z,8.44
2022-12-26T00:27:25.957Z,8.41
2022-12-26T00:27:57.555Z,8.44
2022-12-26T00:28:29.112Z,8.46
2022-12-26T00:29:00.764Z,8.46
2022-12-26T00:29:32.391Z,8.45
2022-12-26T00:30:04.708Z,8.44
2022-12-26T00:30:38.381Z,8.44
2022-12-26T00:31:16.300Z,8.42
2022-12-26T00:31:49.662Z,8.45
2022-12-26T00:32:21.343Z,8.44
2022-12-26T00:32:52.896Z,8.40
2022-12-26T00:33:24.627Z,8.40
2022-12-26T00:33:56.369Z,8.44
2022-12-26T00:34:28.007Z,8.41
2022-12-26T00:34:59.645Z,8.44
2022-12-26T00:35:31.203Z,8.46
2022-12-26T00:36:04.714Z,8.44
2022-12-26T00:36:36.341Z,8.42
2022-12-26T00:37:07.878Z,8.42
2022-12-26T00:37:39.449Z,8.40
2022-12-26T00:38:11.028Z,8.37
2022-12-26T00:38:44.637Z,8.35
2022-12-26T00:39:17.679Z,8.34
2022-12-26T00:39:49.322Z,8.30
2022-12-26T00:40:21.000Z,8.33
2022-12-26T00:40:52.552Z,8.35
2022-12-26T00:41:24.169Z,8.38
2022-12-26T00:41:55.739Z,8.42
2022-12-26T00:42:27.377Z,8.41
2022-12-26T00:42:58.966Z,8.42
2022-12-26T00:43:30.785Z,8.42
2022-12-26T00:44:03.444Z,8.41
2022-12-26T00:44:35.172Z,8.41
2022-12-26T00:45:07.288Z,8.37
2022-12-26T00:45:38.829Z,8.35
2022-12-26T00:46:10.962Z,8.34
2022-12-26T00:46:42.727Z,8.37
2022-12-26T00:47:14.481Z,8.37
2022-12-26T00:47:46.096Z,8.37
2022-12-26T00:48:17.700Z,8.37
2022-12-26T00:48:49.606Z,8.37
2022-12-26T00:49:21.200Z,8.38
2022-12-26T00:50:12.517Z,8.37
2022-12-26T00:50:44.290Z,8.37
2022-12-26T00:51:16.014Z,8.37
2022-12-26T00:51:47.637Z,8.38
2022-12-26T00:52:20.034Z,8.35
2022-12-26T00:52:51.673Z,8.38
2022-12-26T00:53:24.272Z,8.38
2022-12-26T00:53:56.214Z,8.37
2022-12-26T00:54:27.758Z,8.38
2022-12-26T00:54:59.301Z,8.35
2022-12-26T00:55:31.095Z,8.34
2022-12-26T00:56:02.831Z,8.34
2022-12-26T00:56:34.505Z,8.34
2022-12-26T00:57:06.402Z,8.38
2022-12-26T00:57:37.967Z,8.38
2022-12-26T00:58:09.882Z,8.38
2022-12-26T00:58:42.205Z,8.37
2022-12-26T00:59:13.837Z,8.35
2022-12-26T00:59:45.386Z,8.40
2022-12-26T01:00:17.039Z,8.40
2022-12-26T01:00:49.250Z,8.42
2022-12-26T01:01:23.028Z,8.42
2022-12-26T01:01:54.859Z,8.41
2022-12-26T01:02:38.604Z,8.38
2022-12-26T01:03:11.815Z,8.40
2022-12-26T01:03:44.607Z,8.41
2022-12-26T01:04:16.311Z,8.44
2022-12-26T01:04:47.863Z,8.41
2022-12-26T01:05:19.615Z,8.41
2022-12-26T01:05:52.134Z,8.40
2022-12-26T01:06:23.721Z,8.35
2022-12-26T01:06:55.281Z,8.37
2022-12-26T01:07:26.853Z,8.35
2022-12-26T01:08:23.543Z,8.31
2022-12-26T01:08:50.035Z,8.31
2022-12-26T01:09:21.612Z,8.31
2022-12-26T01:09:53.198Z,8.30
2022-12-26T01:10:25.256Z,8.33
2022-12-26T01:10:57.033Z,8.37
2022-12-26T01:11:40.734Z,8.37
2022-12-26T01:12:12.585Z,8.37
2022-12-26T01:12:44.468Z,8.40
2022-12-26T01:13:16.141Z,8.37
2022-12-26T01:13:47.716Z,8.42
2022-12-26T01:14:19.373Z,8.41
2022-12-26T01:14:50.928Z,8.41
2022-12-26T01:15:22.470Z,8.42
2022-12-26T01:15:54.551Z,8.44
2022-12-26T01:16:26.229Z,8.45
2022-12-26T01:16:57.925Z,8.45
2022-12-26T01:17:29.659Z,8.42
2022-12-26T01:18:01.571Z,8.45
2022-12-26T01:18:33.651Z,8.44
2022-12-26T01:19:06.339Z,8.44
2022-12-26T01:19:37.931Z,8.44
2022-12-26T01:20:10.103Z,8.46
2022-12-26T01:20:41.704Z,8.41
2022-12-26T01:21:13.321Z,8.44
2022-12-26T01:21:44.945Z,8.44
2022-12-26T01:22:16.564Z,8.46
2022-12-26T01:22:48.135Z,8.45
2022-12-26T01:23:19.725Z,8.45
2022-12-26T01:23:51.363Z,8.45
2022-12-26T01:24:23.064Z,8.51
2022-12-26T01:24:58.340Z,8.48
2022-12-26T01:25:29.897Z,8.48
2022-12-26T01:26:18.773Z,8.46
2022-12-26T01:26:51.596Z,8.46
2022-12-26T01:27:25.514Z,8.46
2022-12-26T01:27:57.158Z,8.44
2022-12-26T01:28:28.720Z,8.46
2022-12-26T01:29:00.309Z,8.46
2022-12-26T01:29:32.235Z,8.46
2022-12-26T01:30:04.813Z,8.48
2022-12-26T01:30:37.237Z,8.46
2022-12-26T01:31:08.831Z,8.45
2022-12-26T01:31:40.413Z,8.45
2022-12-26T01:32:12.089Z,8.44
2022-12-26T01:32:43.729Z,8.44
2022-12-26T01:33:15.809Z,8.45
2022-12-26T01:33:47.591Z,8.42
2022-12-26T01:34:19.364Z,8.41
2022-12-26T01:34:52.567Z,8.41
2022-12-26T01:35:24.666Z,8.40
2022-12-26T01:35:56.307Z,8.38
2022-12-26T01:36:27.894Z,8.40
2022-12-26T01:36:59.464Z,8.40
2022-12-26T01:37:31.074Z,8.40
2022-12-26T01:38:02.707Z,8.35
2022-12-26T01:38:34.324Z,8.40
2022-12-26T01:39:05.953Z,8.41
2022-12-26T01:39:37.566Z,8.40
2022-12-26T01:40:11.391Z,8.42
2022-12-26T01:40:44.376Z,8.41
2022-12-26T01:41:22.297Z,8.41
2022-12-26T01:41:53.934Z,8.37
2022-12-26T01:42:26.696Z,8.35
2022-12-26T01:42:58.266Z,8.33
2022-12-26T01:43:47.734Z,8.31
2022-12-26T01:44:56.680Z,8.28
2022-12-26T01:45:29.727Z,8.30
2022-12-26T01:46:01.466Z,8.31
2022-12-26T01:46:40.723Z,8.37
2022-12-26T01:47:13.425Z,8.34
2022-12-26T01:48:18.963Z,8.33
2022-12-26T01:48:51.578Z,8.34
2022-12-26T01:49:37.664Z,8.35
2022-12-26T01:50:31.596Z,8.38
2022-12-26T01:51:05.033Z,8.45
2022-12-26T01:51:41.572Z,8.41
2022-12-26T01:52:21.329Z,8.38
2022-12-26T01:52:56.496Z,8.33
2022-12-26T01:53:32.954Z,8.33
2022-12-26T01:54:40.002Z,8.33
2022-12-26T01:55:00.653Z,8.33
2022-12-26T01:55:33.242Z,8.40
2022-12-26T01:56:12.305Z,8.35
2022-12-26T01:56:46.944Z,8.34
2022-12-26T01:57:29.759Z,8.38
2022-12-26T01:58:08.300Z,8.41
2022-12-26T01:58:47.147Z,8.37
2022-12-26T01:59:23.458Z,8.35
2022-12-26T01:59:57.986Z,8.40
2022-12-26T02:01:10.533Z,8.38
2022-12-26T02:01:44.019Z,8.35
2022-12-26T02:02:17.851Z,8.35
2022-12-26T02:03:08.453Z,8.33
2022-12-26T02:04:01.332Z,8.37
2022-12-26T02:04:57.668Z,8.41
2022-12-26T02:05:36.338Z,8.40
2022-12-26T02:06:10.018Z,8.38
2022-12-26T02:06:42.732Z,8.30
2022-12-26T02:07:14.384Z,8.33
2022-12-26T02:07:47.260Z,8.31
2022-12-26T02:08:24.098Z,8.33
2022-12-26T02:08:56.327Z,8.33
2022-12-26T02:09:28.000Z,8.33
2022-12-26T02:09:59.755Z,8.33
2022-12-26T02:10:37.006Z,8.31
2022-12-26T02:11:26.490Z,8.34
2022-12-26T02:12:36.080Z,8.27
2022-12-26T02:12:58.719Z,8.23
2022-12-26T02:13:30.878Z,8.24
2022-12-26T02:14:04.344Z,8.21
2022-12-26T02:14:38.081Z,8.17
2022-12-26T02:15:16.871Z,8.17
2022-12-26T02:15:48.675Z,8.10
2022-12-26T02:16:20.679Z,8.17
2022-12-26T02:16:52.424Z,8.16
2022-12-26T02:17:26.227Z,8.16
2022-12-26T02:17:57.818Z,8.17
2022-12-26T02:18:29.423Z,8.14
2022-12-26T02:19:01.146Z,8.20
2022-12-26T02:19:55.683Z,8.16
2022-12-26T02:20:41.317Z,8.16
2022-12-26T02:21:50.178Z,8.20
2022-12-26T02:22:50.533Z,8.11
2022-12-26T02:23:40.213Z,8.13
2022-12-26T02:24:30.623Z,8.11
2022-12-26T02:25:28.272Z,8.11
2022-12-26T02:26:31.849Z,8.08
2022-12-26T02:27:18.508Z,8.07
2022-12-26T02:28:14.721Z,8.07
2022-12-26T02:29:04.719Z,8.13
2022-12-26T02:30:21.152Z,8.18
2022-12-26T02:31:01.875Z,8.21
2022-12-26T02:31:52.770Z,8.24
2022-12-26T02:32:53.437Z,8.23
2022-12-26T02:33:40.480Z,8.18
2022-12-26T02:34:20.883Z,8.11
2022-12-26T02:35:14.612Z,8.10
2022-12-26T02:36:00.902Z,8.08
2022-12-26T02:36:59.571Z,8.01
2022-12-26T02:38:07.690Z,8.01
2022-12-26T02:38:50.757Z,8.00
2022-12-26T02:40:03.869Z,8.11
2022-12-26T02:40:49.972Z,8.14
2022-12-26T02:41:42.589Z,8.16
2022-12-26T02:42:26.213Z,8.06
2022-12-26T02:43:13.379Z,8.06
2022-12-26T02:44:57.446Z,8.01
2022-12-26T02:45:56.805Z,7.97
2022-12-26T02:47:03.745Z,7.97
2022-12-26T02:47:56.889Z,7.96
2022-12-26T02:48:46.698Z,7.93
2022-12-26T02:49:26.483Z,7.94
2022-12-26T02:50:38.136Z,8.00
2022-12-26T02:51:40.211Z,8.00
2022-12-26T02:52:39.993Z,7.98
2022-12-26T02:53:47.593Z,8.00
2022-12-26T02:55:05.015Z,7.96
2022-12-26T02:55:59.968Z,7.94
2022-12-26T02:56:54.876Z,7.91
2022-12-26T02:57:55.534Z,8.00
2022-12-26T02:58:57.595Z,8.03
2022-12-26T03:00:15.706Z,8.04
2022-12-26T03:01:09.123Z,8.01
2022-12-26T03:02:04.264Z,8.00
2022-12-26T03:03:04.060Z,7.97
2022-12-26T03:03:57.233Z,7.93
2022-12-26T03:04:50.102Z,7.91
2022-12-26T03:05:55.200Z,7.93
2022-12-26T03:06:49.590Z,7.93
2022-12-26T03:07:46.598Z,7.86
2022-12-26T03:08:43.176Z,7.85
2022-12-26T03:09:39.569Z,7.82
2022-12-26T03:11:00.150Z,7.83
2022-12-26T03:11:55.992Z,7.96
2022-12-26T03:13:11.956Z,7.91
2022-12-26T03:13:45.787Z,7.93
2022-12-26T03:14:22.310Z,7.93
2022-12-26T03:15:03.050Z,7.97
2022-12-26T03:16:09.676Z,7.98
2022-12-26T03:17:01.100Z,7.97
2022-12-26T03:17:43.862Z,7.94
2022-12-26T03:18:17.420Z,7.96
2022-12-26T03:18:59.411Z,8.00
2022-12-26T03:19:33.071Z,8.13
2022-12-26T03:20:09.412Z,8.14
2022-12-26T03:20:41.060Z,8.11
2022-12-26T03:21:14.532Z,8.08
2022-12-26T03:21:47.779Z,8.07
2022-12-26T03:22:31.461Z,8.07
2022-12-26T03:23:02.983Z,8.08
2022-12-26T03:23:36.338Z,8.04
2022-12-26T03:24:10.737Z,8.04
2022-12-26T03:25:02.534Z,8.00
2022-12-26T03:26:04.610Z,7.97
2022-12-26T03:26:42.503Z,7.96
2022-12-26T03:27:14.126Z,7.94
2022-12-26T03:27:46.334Z,7.94
2022-12-26T03:28:18.045Z,7.93
2022-12-26T03:28:49.733Z,7.93
2022-12-26T03:29:42.467Z,7.91
2022-12-26T03:30:32.918Z,7.93
2022-12-26T03:31:08.681Z,7.98
2022-12-26T03:31:40.339Z,8.03
2022-12-26T03:32:13.074Z,8.01
2022-12-26T03:32:45.068Z,8.00
2022-12-26T03:33:59.439Z,7.97
2022-12-26T03:34:31.180Z,7.91
2022-12-26T03:35:13.023Z,7.90
2022-12-26T03:35:44.726Z,7.89
2022-12-26T03:36:40.774Z,7.91
2022-12-26T03:37:48.251Z,7.89
2022-12-26T03:38:30.140Z,7.91
2022-12-26T03:39:58.485Z,7.87
2022-12-26T03:41:13.992Z,7.87
2022-12-26T03:42:23.934Z,7.85
2022-12-26T03:43:54.082Z,7.85
2022-12-26T03:44:53.735Z,7.80
2022-12-26T03:45:50.258Z,7.75
2022-12-26T03:46:46.955Z,7.77
2022-12-26T03:47:47.748Z,7.76
2022-12-26T03:48:53.954Z,7.75
2022-12-26T03:49:47.389Z,7.77
2022-12-26T03:51:01.396Z,7.75
2022-12-26T03:52:01.940Z,7.73
2022-12-26T03:53:02.580Z,7.73
2022-12-26T03:53:55.357Z,7.72
2022-12-26T03:55:04.904Z,7.70
2022-12-26T03:56:14.203Z,7.69
2022-12-26T03:57:13.219Z,7.61
2022-12-26T03:58:32.501Z,7.55
2022-12-26T03:59:42.176Z,7.61
2022-12-26T04:00:32.941Z,7.63
2022-12-26T04:01:28.815Z,7.67
2022-12-26T04:02:26.829Z,7.67
2022-12-26T04:03:37.217Z,7.69
2022-12-26T04:04:30.733Z,7.67
2022-12-26T04:05:24.185Z,7.67
2022-12-26T04:06:16.138Z,7.65
2022-12-26T04:07:18.719Z,7.59
2022-12-26T04:08:18.741Z,7.58
2022-12-26T04:09:28.645Z,7.55
2022-12-26T04:10:39.568Z,7.51
2022-12-26T04:11:35.469Z,7.49
2022-12-26T04:12:30.234Z,7.55
2022-12-26T04:13:25.005Z,7.59
2022-12-26T04:14:20.996Z,7.55
2022-12-26T04:15:10.976Z,7.55
2022-12-26T04:16:07.539Z,7.55
2022-12-26T04:17:19.593Z,7.61
2022-12-26T04:18:18.645Z,7.66
2022-12-26T04:19:11.778Z,7.67
2022-12-26T04:20:00.398Z,7.63
2022-12-26T04:20:43.861Z,7.67
2022-12-26T04:21:39.726Z,7.58
2022-12-26T04:22:41.336Z,7.51
2022-12-26T04:23:35.663Z,7.45
2022-12-26T04:24:34.827Z,7.49
2022-12-26T04:25:50.840Z,7.48
2022-12-26T04:26:53.539Z,7.31
2022-12-26T04:27:47.756Z,7.29
2022-12-26T04:28:39.709Z,7.38
2022-12-26T04:29:30.067Z,7.44
2022-12-26T04:30:20.721Z,7.42
2022-12-26T04:31:20.764Z,7.44
2022-12-26T04:32:39.756Z,7.48
2022-12-26T04:33:36.618Z,7.44
2022-12-26T04:34:37.588Z,7.48
2022-12-26T04:36:10.651Z,7.48
2022-12-26T04:37:18.434Z,7.48
2022-12-26T04:38:10.855Z,7.45
2022-12-26T04:39:06.218Z,7.46
2022-12-26T04:39:59.657Z,7.44
2022-12-26T04:40:54.505Z,7.46
2022-12-26T04:41:48.165Z,7.44
2022-12-26T04:42:39.781Z,7.46
2022-12-26T04:43:49.048Z,7.38
2022-12-26T04:44:24.544Z,7.38
2022-12-26T04:44:57.531Z,7.38
2022-12-26T04:45:29.445Z,7.36
2022-12-26T04:46:02.109Z,7.35
2022-12-26T04:46:36.396Z,7.34
2022-12-26T04:47:08.474Z,7.31
2022-12-26T04:48:00.169Z,7.34
2022-12-26T04:48:51.471Z,7.32
2022-12-26T04:49:41.829Z,7.38
2022-12-26T04:50:13.633Z,7.32
2022-12-26T04:50:52.864Z,7.28
2022-12-26T04:51:24.457Z,7.28
2022-12-26T04:52:00.903Z,7.28
2022-12-26T04:52:51.024Z,7.31
2022-12-26T04:53:22.622Z,7.27
2022-12-26T04:53:54.208Z,7.21
2022-12-26T04:54:26.079Z,7.25
2022-12-26T04:54:57.653Z,7.28
2022-12-26T04:55:32.666Z,7.27
2022-12-26T04:56:04.498Z,7.27
2022-12-26T04:56:36.121Z,7.27
2022-12-26T04:57:08.134Z,7.29
2022-12-26T04:57:39.803Z,7.27
2022-12-26T04:58:11.789Z,7.21
2022-12-26T04:58:43.337Z,7.19
2022-12-26T04:59:15.984Z,7.18
2022-12-26T04:59:47.540Z,7.15
2022-12-26T05:00:19.386Z,7.15
2022-12-26T05:00:51.157Z,7.15
2022-12-26T05:01:41.461Z,7.18
2022-12-26T05:02:31.635Z,7.14
2022-12-26T05:03:22.012Z,7.15
2022-12-26T05:04:12.089Z,7.12
2022-12-26T05:05:02.430Z,7.08
2022-12-26T05:05:57.828Z,7.09
2022-12-26T05:06:48.242Z,7.04
2022-12-26T05:07:47.892Z,7.05
2022-12-26T05:08:57.722Z,7.03
2022-12-26T05:09:35.361Z,6.97
2022-12-26T05:10:10.965Z,6.96
2022-12-26T05:10:42.585Z,6.94
2022-12-26T05:11:14.246Z,6.94
2022-12-26T05:11:47.335Z,6.88
2022-12-26T05:12:19.496Z,6.88
2022-12-26T05:12:53.064Z,6.84
2022-12-26T05:13:24.640Z,6.86
2022-12-26T05:13:57.520Z,6.83
2022-12-26T05:14:31.574Z,6.79
2022-12-26T05:15:03.588Z,6.77
2022-12-26T05:15:56.060Z,6.83
2022-12-26T05:16:46.735Z,6.75
2022-12-26T05:17:37.067Z,6.72
2022-12-26T05:18:35.087Z,6.75
2022-12-26T05:19:27.509Z,6.69
2022-12-26T05:20:18.062Z,6.70
2022-12-26T05:21:07.864Z,6.73
2022-12-26T05:21:58.294Z,6.66
2022-12-26T05:22:51.749Z,6.65
2022-12-26T05:23:47.502Z,6.63
2022-12-26T05:24:38.645Z,6.65
2022-12-26T05:25:36.153Z,6.63
2022-12-26T05:26:37.672Z,6.62
2022-12-26T05:27:34.138Z,6.56
2022-12-26T05:28:24.355Z,6.50
2022-12-26T05:28:59.814Z,6.47
2022-12-26T05:29:31.411Z,6.49
2022-12-26T05:30:03.752Z,6.52
2022-12-26T05:30:35.308Z,6.46
2022-12-26T05:31:07.978Z,6.46
2022-12-26T05:31:39.701Z,6.50
2022-12-26T05:32:11.385Z,6.53
2022-12-26T05:33:01.613Z,6.54
2022-12-26T05:33:52.135Z,6.54
2022-12-26T05:34:23.699Z,6.59
2022-12-26T05:34:55.244Z,6.60
2022-12-26T05:35:26.914Z,6.57
2022-12-26T05:35:59.063Z,6.53
2022-12-26T05:36:34.734Z,6.49
2022-12-26T05:37:06.348Z,6.54
2022-12-26T05:37:37.994Z,6.57
2022-12-26T05:38:10.750Z,6.57
2022-12-26T05:38:42.313Z,6.56
2022-12-26T05:39:14.255Z,6.59
2022-12-26T05:39:45.807Z,6.59
2022-12-26T05:40:17.462Z,6.56
2022-12-26T05:40:49.014Z,6.47
2022-12-26T05:41:20.644Z,6.50
2022-12-26T05:41:52.284Z,6.52
2022-12-26T05:42:23.839Z,6.57
2022-12-26T05:42:55.530Z,6.57
2022-12-26T05:43:27.152Z,6.59
2022-12-26T05:43:58.731Z,6.52
2022-12-26T05:44:30.277Z,6.49
2022-12-26T05:45:01.869Z,6.43
2022-12-26T05:45:33.495Z,6.43
2022-12-26T05:46:05.419Z,6.47
2022-12-26T05:46:38.208Z,6.45
2022-12-26T05:47:09.868Z,6.45
2022-12-26T05:47:44.698Z,6.45
2022-12-26T05:48:18.601Z,6.45
2022-12-26T05:48:50.514Z,6.33
2022-12-26T05:49:22.103Z,6.30
2022-12-26T05:49:53.682Z,6.38
2022-12-26T05:50:25.229Z,6.43
2022-12-26T05:51:04.544Z,6.42
2022-12-26T05:51:36.456Z,6.42
2022-12-26T05:52:08.038Z,6.42
2022-12-26T05:52:39.593Z,6.43
2022-12-26T05:53:11.209Z,6.39
2022-12-26T05:53:42.820Z,6.40
2022-12-26T05:54:14.512Z,6.39
2022-12-26T05:54:46.121Z,6.35
2022-12-26T05:55:17.884Z,6.35
2022-12-26T05:55:49.457Z,6.35
2022-12-26T05:56:21.648Z,6.35
2022-12-26T05:56:53.804Z,6.21
2022-12-26T05:57:25.361Z,6.19
2022-12-26T05:57:59.251Z,6.12
2022-12-26T05:58:30.872Z,6.07
2022-12-26T05:59:02.491Z,6.05
2022-12-26T05:59:34.093Z,6.09
2022-12-26T06:00:06.290Z,6.15
2022-12-26T06:00:37.864Z,6.09
2022-12-26T06:01:19.774Z,6.04
2022-12-26T06:01:51.452Z,6.07
2022-12-26T06:02:23.390Z,6.01
2022-12-26T06:02:55.213Z,5.95
2022-12-26T06:03:29.822Z,5.98
2022-12-26T06:04:01.626Z,5.99
2022-12-26T06:04:34.791Z,5.99
2022-12-26T06:05:06.602Z,5.98
2022-12-26T06:05:38.146Z,6.05
2022-12-26T06:06:10.564Z,6.05
2022-12-26T06:06:42.146Z,6.02
2022-12-26T06:07:13.756Z,6.01
2022-12-26T06:07:45.442Z,5.97
2022-12-26T06:08:17.072Z,5.93
2022-12-26T06:08:50.559Z,5.94
2022-12-26T06:09:25.426Z,5.93
2022-12-26T06:09:57.045Z,5.87
2022-12-26T06:10:29.823Z,5.81
2022-12-26T06:11:10.436Z,5.83
2022-12-26T06:11:48.567Z,5.87
2022-12-26T06:12:20.663Z,5.86
2022-12-26T06:12:53.184Z,5.86
2022-12-26T06:13:24.947Z,5.90
2022-12-26T06:13:56.639Z,5.91
2022-12-26T06:14:28.281Z,5.81
2022-12-26T06:14:59.880Z,5.83
2022-12-26T06:15:31.429Z,5.74
2022-12-26T06:16:08.039Z,5.74
2022-12-26T06:16:39.708Z,5.74
2022-12-26T06:17:11.354Z,5.71
2022-12-26T06:17:43.072Z,5.70
2022-12-26T06:18:14.673Z,5.60
2022-12-26T06:18:46.712Z,5.63
2022-12-26T06:19:18.421Z,5.56
2022-12-26T06:19:50.043Z,5.50
2022-12-26T06:20:21.594Z,5.53
2022-12-26T06:20:53.200Z,5.50
2022-12-26T06:21:24.948Z,5.50
2022-12-26T06:21:56.577Z,5.47
2022-12-26T06:22:31.414Z,5.43
2022-12-26T06:23:02.986Z,5.40
2022-12-26T06:23:35.870Z,5.51
2022-12-26T06:24:07.579Z,5.59
2022-12-26T06:24:39.157Z,5.53
2022-12-26T06:25:10.763Z,5.38
2022-12-26T06:25:42.400Z,5.36
2022-12-26T06:26:14.418Z,5.35
2022-12-26T06:26:46.089Z,5.35
2022-12-26T06:27:17.684Z,5.25
2022-12-26T06:27:49.344Z,5.23
2022-12-26T06:28:21.081Z,5.30
2022-12-26T06:28:52.804Z,5.20
2022-12-26T06:29:24.770Z,5.20
2022-12-26T06:29:56.371Z,5.25
2022-12-26T06:30:27.967Z,5.25
2022-12-26T06:31:21.765Z,5.26
2022-12-26T06:31:53.637Z,5.18
2022-12-26T06:32:25.281Z,5.20
2022-12-26T06:32:56.962Z,5.23
2022-12-26T06:33:28.749Z,5.19
2022-12-26T06:34:02.066Z,5.19
2022-12-26T06:34:33.710Z,5.22
2022-12-26T06:35:05.726Z,5.25
2022-12-26T06:35:37.374Z,5.23
2022-12-26T06:36:12.310Z,5.26
2022-12-26T06:36:44.288Z,5.22
2022-12-26T06:37:15.944Z,5.23
2022-12-26T06:37:47.565Z,5.19
2022-12-26T06:38:19.118Z,5.18
2022-12-26T06:38:50.987Z,5.13
2022-12-26T06:39:23.391Z,5.08
2022-12-26T06:39:54.932Z,5.02
2022-12-26T06:40:26.515Z,5.08
2022-12-26T06:40:58.136Z,5.11
2022-12-26T06:41:30.009Z,5.05
2022-12-26T06:42:01.598Z,5.11
2022-12-26T06:42:33.169Z,5.13
2022-12-26T06:43:05.040Z,5.12
2022-12-26T06:43:36.741Z,5.07
2022-12-26T06:44:16.149Z,5.16
2022-12-26T06:44:49.652Z,5.19
2022-12-26T06:45:21.212Z,5.13
2022-12-26T06:45:57.381Z,5.16
2022-12-26T06:46:29.166Z,5.16
2022-12-26T06:47:00.923Z,5.15
2022-12-26T06:47:32.570Z,5.15
2022-12-26T06:48:04.435Z,5.19
2022-12-26T06:48:39.724Z,5.18
2022-12-26T06:49:11.607Z,5.16
2022-12-26T06:49:43.189Z,5.19
2022-12-26T06:50:14.753Z,5.18
2022-12-26T06:50:46.346Z,5.18
2022-12-26T06:51:21.142Z,5.16
2022-12-26T06:51:52.788Z,5.08
2022-12-26T06:52:24.386Z,5.07
2022-12-26T06:52:56.010Z,5.04
2022-12-26T06:53:27.647Z,5.07
2022-12-26T06:54:04.236Z,5.08
2022-12-26T06:54:35.822Z,5.05
2022-12-26T06:55:08.008Z,5.05
2022-12-26T06:55:39.565Z,5.08
2022-12-26T06:56:17.456Z,5.09
2022-12-26T06:56:49.533Z,5.11
2022-12-26T06:57:21.142Z,5.11
2022-12-26T06:57:53.566Z,5.12
2022-12-26T06:58:25.154Z,5.13
2022-12-26T06:59:01.338Z,5.16
2022-12-26T06:59:33.108Z,5.11
2022-12-26T07:00:05.115Z,5.07
2022-12-26T07:00:37.095Z,5.08
2022-12-26T07:01:11.758Z,5.13
2022-12-26T07:01:43.613Z,5.12
2022-12-26T07:02:15.406Z,5.16
2022-12-26T07:02:50.665Z,5.12
2022-12-26T07:03:25.906Z,5.08
2022-12-26T07:03:58.029Z,5.09
2022-12-26T07:04:29.647Z,5.16
2022-12-26T07:05:01.550Z,5.19
2022-12-26T07:05:36.369Z,5.25
2022-12-26T07:06:32.740Z,5.02
2022-12-26T07:07:04.313Z,5.08
2022-12-26T07:07:35.963Z,5.18
2022-12-26T07:08:07.519Z,5.23
2022-12-26T07:08:39.184Z,5.20
2022-12-26T07:09:14.731Z,5.18
2022-12-26T07:09:46.339Z,5.15
2022-12-26T07:10:19.700Z,5.20
2022-12-26T07:10:51.320Z,5.29
2022-12-26T07:11:28.679Z,5.30
2022-12-26T07:12:00.290Z,5.32
2022-12-26T07:12:34.932Z,5.36
2022-12-26T07:13:06.518Z,5.39
2022-12-26T07:13:38.062Z,5.33
2022-12-26T07:14:09.907Z,5.40
2022-12-26T07:14:41.516Z,5.36
2022-12-26T07:15:13.818Z,5.33
2022-12-26T07:15:45.415Z,5.32
2022-12-26T07:16:17.117Z,5.22
2022-12-26T07:16:48.739Z,5.26
2022-12-26T07:17:20.335Z,5.33
2022-12-26T07:17:52.723Z,5.40
2022-12-26T07:18:24.343Z,5.44
2022-12-26T07:18:57.092Z,5.51
2022-12-26T07:19:28.648Z,5.53
2022-12-26T07:20:00.305Z,5.43
2022-12-26T07:20:31.981Z,5.43
2022-12-26T07:21:11.373Z,5.49
2022-12-26T07:21:43.503Z,5.47
2022-12-26T07:22:15.057Z,5.50
2022-12-26T07:22:46.640Z,5.42
2022-12-26T07:23:18.268Z,5.49
2022-12-26T07:23:50.520Z,5.54
2022-12-26T07:24:22.688Z,5.61
2022-12-26T07:24:54.345Z,5.68
2022-12-26T07:25:25.926Z,5.53
2022-12-26T07:25:57.557Z,5.44
2022-12-26T07:26:29.228Z,5.54
2022-12-26T07:27:00.782Z,5.59
2022-12-26T07:27:32.389Z,5.56
2022-12-26T07:28:04.507Z,5.63
2022-12-26T07:28:36.147Z,5.73
2022-12-26T07:29:07.773Z,5.78
2022-12-26T07:29:39.333Z,5.80
2022-12-26T07:30:11.262Z,5.77
2022-12-26T07:30:50.538Z,5.67
2022-12-26T07:31:22.801Z,5.74
2022-12-26T07:31:54.458Z,5.71
2022-12-26T07:32:27.394Z,5.78
2022-12-26T07:32:58.940Z,5.78
2022-12-26T07:33:30.658Z,5.87
2022-12-26T07:34:02.321Z,5.93
2022-12-26T07:34:33.984Z,5.94
2022-12-26T07:35:05.936Z,5.95
2022-12-26T07:35:37.484Z,5.93
2022-12-26T07:36:09.109Z,5.88
2022-12-26T07:36:41.062Z,5.90
2022-12-26T07:37:12.633Z,5.86
2022-12-26T07:37:44.231Z,5.73
2022-12-26T07:38:15.843Z,5.84
2022-12-26T07:38:47.811Z,5.95
2022-12-26T07:39:19.421Z,5.97
2022-12-26T07:39:56.832Z,5.98
2022-12-26T07:40:30.373Z,6.01
2022-12-26T07:41:24.918Z,6.07
2022-12-26T07:41:59.508Z,6.18
2022-12-26T07:42:31.137Z,6.19
2022-12-26T07:43:03.275Z,6.24
2022-12-26T07:43:34.818Z,6.28
2022-12-26T07:44:06.783Z,6.32
2022-12-26T07:44:39.532Z,6.35
2022-12-26T07:45:11.266Z,6.36
2022-12-26T07:45:45.842Z,6.39
2022-12-26T07:46:17.847Z,6.39
2022-12-26T07:46:49.770Z,6.32
2022-12-26T07:47:21.387Z,6.40
2022-12-26T07:47:56.826Z,6.38
2022-12-26T07:48:30.217Z,6.47
2022-12-26T07:49:02.132Z,6.54
2022-12-26T07:49:33.793Z,6.56
2022-12-26T07:50:05.728Z,6.43
2022-12-26T07:50:37.345Z,6.36
2022-12-26T07:51:08.929Z,6.46
2022-12-26T07:51:41.678Z,6.45
2022-12-26T07:52:13.375Z,6.47
2022-12-26T07:52:44.987Z,6.52
2022-12-26T07:53:16.608Z,6.57
2022-12-26T07:53:48.913Z,6.62
2022-12-26T07:54:20.652Z,6.56
2022-12-26T07:54:52.230Z,6.50
2022-12-26T07:55:23.830Z,6.36
2022-12-26T07:55:59.593Z,6.43
2022-12-26T07:56:34.503Z,6.43
2022-12-26T07:57:57.872Z,6.59
2022-12-26T07:58:29.625Z,6.60
2022-12-26T07:59:01.339Z,6.63
2022-12-26T07:59:33.095Z,6.47
2022-12-26T08:00:05.781Z,6.60
2022-12-26T08:00:37.325Z,6.72
2022-12-26T08:01:09.062Z,6.86
2022-12-26T08:01:41.047Z,6.79
2022-12-26T08:02:12.929Z,6.75
2022-12-26T08:02:45.111Z,6.76
2022-12-26T08:03:17.114Z,6.97
2022-12-26T08:03:49.985Z,7.01
2022-12-26T08:04:21.630Z,7.05
2022-12-26T08:04:53.213Z,7.12
2022-12-26T08:05:24.829Z,7.09
2022-12-26T08:05:56.830Z,7.04
2022-12-26T08:06:28.422Z,6.91
2022-12-26T08:06:59.978Z,7.03
2022-12-26T08:07:32.361Z,7.14
2022-12-26T08:08:04.095Z,7.28
2022-12-26T08:08:35.727Z,7.36
2022-12-26T08:09:07.341Z,7.46
2022-12-26T08:09:42.944Z,7.56
2022-12-26T08:10:18.011Z,7.62
2022-12-26T08:10:49.680Z,7.55
2022-12-26T08:11:23.826Z,7.56
2022-12-26T08:11:55.482Z,7.56
2022-12-26T08:12:27.176Z,7.54
2022-12-26T08:12:58.775Z,7.49
2022-12-26T08:13:30.770Z,7.29
2022-12-26T08:14:02.564Z,7.32
2022-12-26T08:14:34.751Z,7.27
2022-12-26T08:15:07.070Z,7.27
2022-12-26T08:15:39.816Z,7.38
2022-12-26T08:16:14.214Z,7.38
2022-12-26T08:16:51.377Z,7.42
2022-12-26T08:17:24.949Z,7.35
2022-12-26T08:17:56.585Z,7.31
2022-12-26T08:18:28.211Z,7.34
2022-12-26T08:19:03.663Z,7.29
2022-12-26T08:19:35.245Z,7.27
2022-12-26T08:20:07.298Z,7.38
2022-12-26T08:20:38.869Z,7.32
2022-12-26T08:21:12.021Z,7.32
2022-12-26T08:21:43.627Z,7.35
2022-12-26T08:22:15.283Z,7.35
2022-12-26T08:22:46.874Z,7.39
2022-12-26T08:23:19.077Z,7.36
2022-12-26T08:23:50.678Z,7.39
2022-12-26T08:24:22.256Z,7.48
2022-12-26T08:24:53.909Z,7.45
2022-12-26T08:25:25.556Z,7.38
2022-12-26T08:25:57.230Z,7.36
2022-12-26T08:26:28.905Z,7.39
2022-12-26T08:27:00.449Z,7.38
2022-12-26T08:27:32.446Z,7.41
2022-12-26T08:28:04.196Z,7.44
2022-12-26T08:28:36.441Z,7.46
2022-12-26T08:29:08.009Z,7.54
2022-12-26T08:29:39.659Z,7.58
2022-12-26T08:30:11.594Z,7.63
2022-12-26T08:30:43.509Z,7.62
2022-12-26T08:31:15.512Z,7.66